Wappingers Falls, New York
Current Conditions -  °F | °C
As of 5:53 PM on Wednesday 22 Oct 2014 (Local Time) from KPOU Reporting Station
Haze Haze  
Wind Chill: 52°   Ceiling: 1300
Heat Index: 52°   Visibility: 3mi
Dew Point: 48°   Wind: 10mph
Humidity: 86%   Direction: 360°N
Pressure: 29.9"   Gusts: 22mph
Location:  41.6°N, 73.91°W
Report Text: KPOU 222153Z 36009G19KT 3SM BR OVC013 11/09 A2990 RMK AO2 RAE52 SLP121 P0005 T01110089
Loading
Personal Weather Stations






























Interactive Weather Map New forecast layout! Learn more

10-Day Weather Forecast

Advertisements
Track Severe Weather on mobile